Time;durP1;ratioP1;P1;durP2;ratioP2;P2;SDS_P1;SDS_P2;PMS_P1;PMS_P2;Temp;Humidity;BMP_temperature;BMP_pressure;BME280_temperature;BME280_humidity;BME280_pressure;Samples;Min_cycle;Max_cycle;Signal;HPM_P1;HPM_P2
2021/12/01 00:00:55;;;;;;;15.80;2.97;;;;;;;8.75;100.00;100051.56;5051705;28;20461;-72
2021/12/01 00:03:21;;;;;;;11.65;2.83;;;;;;;8.76;100.00;100037.28;5033159;28;20055;-73
2021/12/01 00:05:48;;;;;;;18.23;3.00;;;;;;;8.77;100.00;100029.19;5051519;28;20458;-72
2021/12/01 00:08:14;;;;;;;22.13;4.15;;;;;;;8.75;100.00;100022.38;5051134;28;20037;-77
2021/12/01 00:10:41;;;;;;;21.30;2.75;;;;;;;8.77;100.00;100025.69;5051426;28;20443;-73
2021/12/01 00:13:09;;;;;;;23.30;3.15;;;;;;;8.75;100.00;100004.63;5051326;28;20178;-72
2021/12/01 00:15:35;;;;;;;26.45;3.08;;;;;;;8.78;100.00;99988.44;5054406;28;20033;-73
2021/12/01 00:18:00;;;;;;;23.33;3.17;;;;;;;8.78;100.00;99975.16;5055344;28;20040;-73
2021/12/01 00:20:26;;;;;;;23.85;3.20;;;;;;;8.85;100.00;99991.31;5054668;28;20052;-73
2021/12/01 00:22:52;;;;;;;22.48;2.97;;;;;;;8.88;100.00;99976.91;5055328;28;20090;-72
2021/12/01 00:25:22;;;;;;;24.77;3.00;;;;;;;8.90;100.00;99961.69;5054668;28;20422;-73
2021/12/01 00:27:49;;;;;;;17.73;2.80;;;;;;;8.88;100.00;99971.59;5055619;28;20021;-72
2021/12/01 00:30:15;;;;;;;26.35;3.13;;;;;;;8.89;100.00;99965.31;5054895;28;20060;-77
2021/12/01 00:32:42;;;;;;;22.13;3.38;;;;;;;8.89;100.00;99955.53;5054815;28;20118;-72
2021/12/01 00:35:09;;;;;;;19.77;2.97;;;;;;;8.88;100.00;99953.03;5055369;28;20111;-72
2021/12/01 00:37:35;;;;;;;18.67;3.58;;;;;;;8.94;100.00;99949.78;5054554;28;20040;-72
2021/12/01 00:40:00;;;;;;;19.85;2.75;;;;;;;8.96;100.00;99927.44;5055243;28;20040;-72
2021/12/01 00:42:26;;;;;;;20.13;2.90;;;;;;;8.94;100.00;99924.09;5054370;28;20034;-73
2021/12/01 00:45:07;;;;;;;15.70;2.80;;;;;;;8.94;100.00;99925.91;5054865;28;20082;-72
2021/12/01 00:50:33;;;;;;;13.57;2.50;;;;;;;8.95;100.00;99911.66;5009745;28;20279;-73
2021/12/01 00:53:02;;;;;;;18.50;2.42;;;;;;;8.95;100.00;99930.25;5054818;28;20029;-72
2021/12/01 00:55:28;;;;;;;16.25;2.53;;;;;;;8.92;100.00;99915.44;5054195;28;20162;-73
2021/12/01 00:57:54;;;;;;;12.45;1.90;;;;;;;8.95;100.00;99903.72;5054604;28;20533;-72
2021/12/01 01:00:22;;;;;;;16.70;2.75;;;;;;;8.95;100.00;99901.06;5054125;28;20027;-73
2021/12/01 01:02:48;;;;;;;19.30;3.20;;;;;;;8.92;100.00;99891.56;5054560;28;20389;-72
2021/12/01 01:05:13;;;;;;;21.40;4.43;;;;;;;8.94;100.00;99872.84;5054598;28;20037;-72
2021/12/01 01:07:39;;;;;;;22.10;2.42;;;;;;;8.93;100.00;99873.84;5054127;28;20055;-72
2021/12/01 01:18:25;;;;;;;15.05;2.80;;;;;;;8.99;99.55;99842.22;5054100;28;20040;-73
2021/12/01 01:20:50;;;;;;;24.33;3.05;;;;;;;9.04;98.73;99847.06;5054273;28;20118;-72
2021/12/01 01:23:16;;;;;;;20.17;3.08;;;;;;;9.03;98.65;99839.25;5054466;28;20460;-72
2021/12/01 01:25:41;;;;;;;19.98;3.20;;;;;;;9.03;98.54;99816.19;5052901;28;20279;-72
2021/12/01 01:28:07;;;;;;;24.77;3.45;;;;;;;9.02;98.92;99816.34;5054355;28;20025;-73
2021/12/01 01:30:32;;;;;;;20.85;3.17;;;;;;;8.99;99.47;99810.38;5053641;28;20079;-73
2021/12/01 01:32:59;;;;;;;22.45;3.35;;;;;;;9.02;98.86;99819.00;5053980;28;20465;-72
2021/12/01 01:35:24;;;;;;;35.83;4.07;;;;;;;9.03;98.99;99792.31;5053379;28;20040;-78
2021/12/01 01:37:50;;;;;;;27.83;3.95;;;;;;;9.04;99.08;99801.97;5036019;28;20552;-73
2021/12/01 01:40:16;;;;;;;22.90;3.42;;;;;;;9.05;98.56;99808.94;5036283;28;20040;-73
2021/12/01 01:42:42;;;;;;;30.05;3.70;;;;;;;9.07;98.36;99793.69;5053231;28;20039;-72
2021/12/01 01:45:08;;;;;;;23.42;3.60;;;;;;;9.07;98.10;99780.41;5053622;28;20029;-72
2021/12/01 01:47:35;;;;;;;26.95;5.00;;;;;;;9.10;97.79;99785.41;5053153;28;20033;-73
2021/12/01 01:50:16;;;;;;;16.35;2.85;;;;;;;9.13;97.07;99766.53;5053657;28;20047;-73
2021/12/01 01:52:41;;;;;;;19.88;2.97;;;;;;;9.15;96.99;99753.09;5053170;28;20037;-74
2021/12/01 01:55:07;;;;;;;18.88;2.80;;;;;;;9.18;96.51;99739.50;5054069;28;20035;-74
2021/12/01 01:57:32;;;;;;;15.90;3.05;;;;;;;9.16;96.66;99762.72;5052851;28;20035;-73
2021/12/01 01:59:58;;;;;;;22.98;3.10;;;;;;;9.16;96.74;99722.94;5053680;28;20036;-73
2021/12/01 02:02:23;;;;;;;18.80;2.63;;;;;;;9.15;96.88;99722.09;5035760;28;20044;-72
2021/12/01 02:04:48;;;;;;;19.88;2.92;;;;;;;9.20;96.15;99720.81;5052698;28;20033;-73
2021/12/01 02:07:14;;;;;;;15.93;2.35;;;;;;;9.17;96.15;99698.88;5053569;28;20025;-72
2021/12/01 02:09:39;;;;;;;18.48;2.95;;;;;;;9.21;94.65;99698.56;5053009;28;20508;-73
2021/12/01 02:12:05;;;;;;;21.17;2.30;;;;;;;9.20;95.10;99691.63;5053561;28;20474;-73
2021/12/01 02:14:30;;;;;;;12.10;2.47;;;;;;;9.20;95.26;99696.91;5035125;28;20087;-73
2021/12/01 02:16:57;;;;;;;21.77;2.13;;;;;;;9.20;95.15;99697.75;5053041;28;20108;-73
2021/12/01 02:19:24;;;;;;;15.27;2.67;;;;;;;9.18;95.20;99674.00;5052902;28;20055;-73
2021/12/01 02:21:50;;;;;;;15.25;2.05;;;;;;;9.15;95.45;99668.19;5049954;28;20041;-72
2021/12/01 02:24:18;;;;;;;11.45;1.70;;;;;;;9.13;95.53;99681.59;5035339;28;20102;-73
2021/12/01 02:26:47;;;;;;;10.77;2.05;;;;;;;9.08;96.00;99662.69;5052516;28;20120;-73
2021/12/01 02:29:15;;;;;;;7.07;1.52;;;;;;;9.12;96.28;99661.38;5052853;28;20070;-74
2021/12/01 02:31:43;;;;;;;11.15;2.13;;;;;;;9.09;96.21;99652.88;5052310;28;20111;-73
2021/12/01 02:34:14;;;;;;;6.53;2.00;;;;;;;9.09;95.78;99639.63;5052725;28;20052;-75
2021/12/01 02:36:40;;;;;;;9.35;1.95;;;;;;;9.10;95.86;99646.59;5052408;28;20025;-74
2021/12/01 02:39:09;;;;;;;9.70;1.80;;;;;;;9.12;95.78;99632.19;5052048;28;20025;-74
2021/12/01 02:41:35;;;;;;;6.60;1.52;;;;;;;9.09;96.12;99613.94;5052200;28;20056;-74
2021/12/01 02:44:04;;;;;;;8.48;1.63;;;;;;;9.02;96.53;99620.00;5052763;28;20466;-74
2021/12/01 02:46:29;;;;;;;12.73;2.05;;;;;;;8.94;97.32;99599.59;5052500;28;20025;-74
2021/12/01 02:48:56;;;;;;;5.10;1.88;;;;;;;8.87;97.93;99603.88;5052144;28;20029;-73
2021/12/01 02:51:25;;;;;;;9.45;1.65;;;;;;;8.80;98.54;99601.03;5052869;28;20037;-73
2021/12/01 02:53:51;;;;;;;9.13;1.55;;;;;;;8.74;99.01;99573.31;5034129;28;20106;-75
2021/12/01 02:56:17;;;;;;;8.98;1.77;;;;;;;8.65;100.00;99571.59;5035032;28;20505;-73
2021/12/01 02:58:44;;;;;;;8.73;2.20;;;;;;;8.59;100.00;99569.59;5051808;28;20059;-74
2021/12/01 03:01:16;;;;;;;9.95;1.52;;;;;;;8.50;100.00;99555.44;5052230;28;20027;-73
2021/12/01 03:03:42;;;;;;;6.40;1.58;;;;;;;8.40;100.00;99550.22;5052221;28;20036;-73
2021/12/01 03:06:07;;;;;;;4.15;1.60;;;;;;;8.37;100.00;99542.56;5052283;28;20037;-74
2021/12/01 03:08:35;;;;;;;5.28;1.58;;;;;;;8.35;100.00;99541.09;5052453;28;20037;-76
2021/12/01 03:11:00;;;;;;;4.40;1.70;;;;;;;8.34;100.00;99523.50;5052126;28;20100;-73
2021/12/01 03:13:26;;;;;;;4.93;1.95;;;;;;;8.29;100.00;99514.22;5052570;28;20049;-73
2021/12/01 03:15:53;;;;;;;1.95;1.48;;;;;;;8.29;100.00;99508.91;5051672;28;20036;-74
2021/12/01 03:18:19;;;;;;;1.83;1.30;;;;;;;8.26;100.00;99506.56;5052200;28;20556;-74
2021/12/01 03:20:46;;;;;;;4.95;1.70;;;;;;;8.25;100.00;99498.78;5051490;28;20169;-73
2021/12/01 03:23:12;;;;;;;4.03;1.50;;;;;;;8.20;100.00;99496.59;5052072;28;20116;-73
2021/12/01 03:25:38;;;;;;;5.30;1.70;;;;;;;8.13;100.00;99471.72;5051238;28;20133;-79
2021/12/01 03:28:06;;;;;;;4.38;1.88;;;;;;;8.06;100.00;99471.53;5052059;28;20123;-73
2021/12/01 03:30:34;;;;;;;3.95;1.60;;;;;;;8.05;100.00;99471.69;5051879;28;20025;-74
2021/12/01 03:33:06;;;;;;;4.80;1.90;;;;;;;8.00;100.00;99474.81;5051464;28;20033;-73
2021/12/01 03:35:32;;;;;;;3.45;1.95;;;;;;;8.00;100.00;99452.75;5051973;28;20040;-73
2021/12/01 03:37:57;;;;;;;4.63;2.15;;;;;;;7.95;100.00;99453.22;5051382;28;20029;-73
2021/12/01 03:40:23;;;;;;;3.40;2.10;;;;;;;7.91;100.00;99450.06;5052002;28;20094;-73
2021/12/01 03:42:49;;;;;;;4.30;2.33;;;;;;;7.83;100.00;99457.13;5016982;28;20028;-73
2021/12/01 03:45:15;;;;;;;5.55;2.35;;;;;;;7.76;100.00;99435.72;5051670;28;20036;-74
2021/12/01 03:47:41;;;;;;;5.63;2.83;;;;;;;7.71;100.00;99425.59;5051287;28;20041;-73
2021/12/01 03:50:08;;;;;;;4.60;2.80;;;;;;;7.66;100.00;99438.50;5056962;28;20465;-72
2021/12/01 03:52:34;;;;;;;5.00;2.65;;;;;;;7.61;100.00;99424.88;5058327;28;20154;-72
2021/12/01 03:54:59;;;;;;;4.85;2.92;;;;;;;7.57;100.00;99421.72;5057779;28;20637;-72
2021/12/01 03:57:25;;;;;;;2.55;2.30;;;;;;;7.54;100.00;99406.13;5058279;28;20032;-71
2021/12/01 03:59:51;;;;;;;5.28;2.47;;;;;;;7.51;100.00;99398.50;5057460;28;20032;-72
2021/12/01 04:02:16;;;;;;;3.20;2.42;;;;;;;7.48;100.00;99388.22;5058578;28;20032;-72
2021/12/01 04:04:42;;;;;;;7.95;3.22;;;;;;;7.45;100.00;99380.59;5058091;28;20533;-77
2021/12/01 04:07:07;;;;;;;3.55;3.05;;;;;;;7.43;100.00;99369.31;5057879;28;20037;-71
2021/12/01 04:09:35;;;;;;;4.47;3.22;;;;;;;7.43;100.00;99363.22;5040790;28;20492;-71
2021/12/01 04:12:01;;;;;;;6.03;3.63;;;;;;;7.44;100.00;99360.41;5057571;28;20060;-72
2021/12/01 04:14:26;;;;;;;4.22;3.80;;;;;;;7.43;100.00;99360.56;5057942;28;20037;-73
2021/12/01 04:16:52;;;;;;;5.72;3.58;;;;;;;7.42;100.00;99357.09;5039834;28;20029;-73
2021/12/01 04:19:17;;;;;;;3.55;3.25;;;;;;;7.44;100.00;99346.34;5058303;28;20048;-72
2021/12/01 04:21:43;;;;;;;6.65;3.50;;;;;;;7.41;100.00;99350.94;5057732;28;20194;-79
2021/12/01 04:24:09;;;;;;;3.58;3.25;;;;;;;7.44;100.00;99341.06;5057748;28;20469;-72
2021/12/01 04:26:35;;;;;;;4.28;3.40;;;;;;;7.39;100.00;99330.94;5057928;28;20306;-72
2021/12/01 04:29:03;;;;;;;7.15;3.80;;;;;;;7.38;100.00;99318.69;5057253;28;20473;-72
2021/12/01 04:31:31;;;;;;;7.05;3.67;;;;;;;7.40;100.00;99317.56;5058088;28;20029;-71
2021/12/01 04:33:57;;;;;;;5.10;4.18;;;;;;;7.37;100.00;99320.50;5057583;28;20032;-72
2021/12/01 04:36:29;;;;;;;6.28;3.90;;;;;;;7.36;100.00;99305.63;5058277;28;20041;-72
2021/12/01 04:38:56;;;;;;;5.50;3.67;;;;;;;7.39;100.00;99310.59;5057365;28;20021;-72
2021/12/01 04:41:23;;;;;;;6.22;3.85;;;;;;;7.37;100.00;99303.78;5057820;28;20106;-72
2021/12/01 04:43:48;;;;;;;9.20;4.10;;;;;;;7.37;100.00;99290.56;5056975;28;20396;-73
2021/12/01 04:46:19;;;;;;;6.65;3.60;;;;;;;7.37;100.00;99301.97;5057834;28;20033;-72
2021/12/01 04:48:45;;;;;;;4.57;3.47;;;;;;;7.38;100.00;99301.00;5057825;28;20501;-73
2021/12/01 04:51:10;;;;;;;4.18;3.40;;;;;;;7.39;100.00;99270.09;5057415;28;20103;-73
2021/12/01 04:53:35;;;;;;;8.18;3.42;;;;;;;7.39;100.00;99288.59;5057872;28;20040;-73
2021/12/01 04:56:01;;;;;;;8.50;3.50;;;;;;;7.38;100.00;99274.53;5057238;28;20039;-73
2021/12/01 04:58:28;;;;;;;4.78;3.20;;;;;;;7.39;100.00;99276.19;5057701;28;20119;-72
2021/12/01 05:00:53;;;;;;;3.97;2.90;;;;;;;7.43;100.00;99252.06;5054855;28;20044;-73
2021/12/01 05:03:19;;;;;;;5.28;2.85;;;;;;;7.41;100.00;99266.28;5054743;28;20029;-74
2021/12/01 05:05:44;;;;;;;5.95;3.10;;;;;;;7.43;100.00;99260.00;5054538;28;20031;-72
2021/12/01 05:08:10;;;;;;;5.10;2.70;;;;;;;7.40;100.00;99230.25;5054058;28;20408;-72
2021/12/01 05:10:35;;;;;;;3.75;3.17;;;;;;;7.43;100.00;99231.72;5054466;28;20033;-72
2021/12/01 05:13:01;;;;;;;4.55;2.70;;;;;;;7.47;100.00;99234.91;5053740;28;20025;-72
2021/12/01 05:15:26;;;;;;;3.63;2.60;;;;;;;7.47;100.00;99240.19;5036691;28;20397;-72
2021/12/01 05:17:51;;;;;;;4.10;2.80;;;;;;;7.45;100.00;99235.06;5036083;28;20057;-77
2021/12/01 05:20:17;;;;;;;5.72;2.78;;;;;;;7.47;100.00;99234.91;5036349;28;20049;-72
2021/12/01 05:22:44;;;;;;;6.13;2.33;;;;;;;7.51;100.00;99233.56;5054395;28;20103;-72
2021/12/01 05:25:09;;;;;;;4.63;2.10;;;;;;;7.48;100.00;99229.44;5053502;28;20151;-72
2021/12/01 05:27:35;;;;;;;2.25;1.90;;;;;;;7.51;100.00;99220.34;5054085;28;20120;-72
2021/12/01 05:30:00;;;;;;;6.97;2.20;;;;;;;7.51;100.00;99226.47;5053508;28;20036;-72
2021/12/01 05:32:26;;;;;;;5.53;1.80;;;;;;;7.55;100.00;99225.19;5054205;28;20388;-72
2021/12/01 05:34:51;;;;;;;5.53;1.92;;;;;;;7.56;100.00;99224.16;5053780;28;20029;-79
2021/12/01 05:37:17;;;;;;;6.18;1.90;;;;;;;7.61;100.00;99217.56;5035979;28;20497;-73
2021/12/01 05:39:45;;;;;;;3.53;1.75;;;;;;;7.64;100.00;99214.59;5054147;28;20037;-72
2021/12/01 05:42:12;;;;;;;4.03;1.70;;;;;;;7.66;100.00;99218.75;5035313;28;20450;-73
2021/12/01 05:44:39;;;;;;;2.60;1.38;;;;;;;7.66;100.00;99194.94;5054133;28;20028;-72
2021/12/01 05:47:04;;;;;;;3.58;1.50;;;;;;;7.68;100.00;99192.13;5035642;28;20552;-74
2021/12/01 05:49:30;;;;;;;9.68;1.35;;;;;;;7.74;100.00;99205.53;5053910;28;20036;-73
2021/12/01 05:51:55;;;;;;;4.90;1.55;;;;;;;7.75;100.00;99199.25;5053261;28;20059;-79
2021/12/01 05:54:21;;;;;;;3.33;1.60;;;;;;;7.78;100.00;99192.81;5054007;28;20041;-72
2021/12/01 05:56:46;;;;;;;7.18;1.77;;;;;;;7.75;100.00;99182.56;5053218;28;20029;-73
2021/12/01 05:59:12;;;;;;;7.68;2.20;;;;;;;7.74;100.00;99186.19;5052901;28;20114;-73
2021/12/01 06:01:37;;;;;;;5.10;1.98;;;;;;;7.76;100.00;99185.03;5053765;28;20389;-73
2021/12/01 06:04:03;;;;;;;11.80;2.65;;;;;;;7.78;100.00;99187.53;5052988;28;20061;-74
2021/12/01 06:06:29;;;;;;;9.10;2.30;;;;;;;7.76;100.00;99176.25;5053607;28;20040;-73
2021/12/01 06:08:55;;;;;;;12.15;2.40;;;;;;;7.76;100.00;99163.84;5035765;28;20413;-76
2021/12/01 06:11:22;;;;;;;8.35;2.85;;;;;;;7.79;100.00;99159.22;5053107;28;20033;-74
2021/12/01 06:13:51;;;;;;;9.13;2.38;;;;;;;7.80;100.00;99163.53;5053392;28;20044;-73
2021/12/01 06:16:20;;;;;;;8.60;2.40;;;;;;;7.79;100.00;99156.56;5052956;28;20044;-73
2021/12/01 06:18:45;;;;;;;8.75;2.45;;;;;;;7.77;100.00;99168.13;5053613;28;20033;-73
2021/12/01 06:21:10;;;;;;;11.43;2.97;;;;;;;7.75;100.00;99162.19;5052692;28;20466;-73
2021/12/01 06:23:36;;;;;;;7.18;2.70;;;;;;;7.74;100.00;99152.59;5018805;28;20025;-73
2021/12/01 06:26:01;;;;;;;14.02;3.42;;;;;;;7.75;100.00;99166.66;5034536;28;20040;-72
2021/12/01 06:28:27;;;;;;;11.30;2.85;;;;;;;7.79;100.00;99145.97;5052476;28;20102;-74
2021/12/01 06:30:52;;;;;;;11.82;3.53;;;;;;;7.79;100.00;99148.63;5035020;28;20036;-73
2021/12/01 06:33:18;;;;;;;9.88;2.70;;;;;;;7.84;100.00;99146.34;5038471;28;20025;-73
2021/12/01 06:35:48;;;;;;;10.35;2.58;;;;;;;7.80;100.00;99140.53;5034467;28;20116;-73
2021/12/01 06:38:13;;;;;;;9.77;2.80;;;;;;;7.79;100.00;99127.44;5046435;28;20037;-72
2021/12/01 06:40:39;;;;;;;8.07;2.65;;;;;;;7.77;100.00;99124.97;5030116;28;20072;-72
2021/12/01 06:43:04;;;;;;;11.73;3.20;;;;;;;7.76;100.00;99125.94;5029455;28;20029;-73
2021/12/01 06:45:30;;;;;;;14.60;2.90;;;;;;;7.75;100.00;99121.66;5030177;28;20141;-75
2021/12/01 06:47:55;;;;;;;12.75;2.60;;;;;;;7.73;100.00;99124.47;5012287;28;20136;-75
2021/12/01 06:50:21;;;;;;;12.25;2.53;;;;;;;7.75;100.00;99119.00;5011786;28;20787;-73
2021/12/01 06:52:46;;;;;;;9.50;2.42;;;;;;;7.75;100.00;99108.41;5011922;28;20036;-74
2021/12/01 06:55:12;;;;;;;10.38;2.47;;;;;;;7.78;100.00;99113.38;5029550;28;20540;-73
2021/12/01 06:57:37;;;;;;;14.52;3.00;;;;;;;7.77;100.00;99109.06;5029630;28;20048;-73
2021/12/01 07:00:06;;;;;;;15.40;2.75;;;;;;;7.78;100.00;99108.09;5029449;28;20041;-77
2021/12/01 07:02:32;;;;;;;11.77;2.53;;;;;;;7.79;100.00;99108.91;5029770;28;20551;-73
2021/12/01 07:04:57;;;;;;;11.43;2.45;;;;;;;7.81;100.00;99110.41;5029588;28;20033;-75
2021/12/01 07:07:22;;;;;;;11.63;3.15;;;;;;;7.85;100.00;99105.59;5028876;28;20242;-73
2021/12/01 07:09:50;;;;;;;15.48;3.20;;;;;;;7.88;100.00;99094.69;5030447;28;20687;-74
2021/12/01 07:12:16;;;;;;;23.67;3.63;;;;;;;7.91;100.00;99089.91;5011712;28;20037;-74
2021/12/01 07:14:42;;;;;;;17.55;2.70;;;;;;;7.98;100.00;99098.00;5029445;28;20061;-75
2021/12/01 07:17:07;;;;;;;20.40;3.92;;;;;;;7.98;100.00;99082.13;5028704;28;20516;-76
2021/12/01 07:19:33;;;;;;;22.98;3.53;;;;;;;7.93;100.00;99098.50;5029761;28;20121;-74
2021/12/01 07:21:58;;;;;;;23.85;3.17;;;;;;;7.95;100.00;99091.22;5029537;28;20057;-74
2021/12/01 07:24:23;;;;;;;21.50;3.28;;;;;;;7.94;100.00;99092.22;5028602;28;20048;-75
2021/12/01 07:26:50;;;;;;;15.98;2.80;;;;;;;7.99;100.00;99109.44;5029398;28;20037;-74
2021/12/01 07:29:17;;;;;;;40.38;4.32;;;;;;;8.01;100.00;99100.31;5028320;28;20219;-76
2021/12/01 07:31:43;;;;;;;25.80;3.72;;;;;;;8.03;100.00;99108.94;5029332;28;20124;-74
2021/12/01 07:34:08;;;;;;;15.20;3.83;;;;;;;8.08;99.23;99116.41;5029159;28;20121;-78
2021/12/01 07:36:33;;;;;;;23.58;3.55;;;;;;;8.04;93.43;99112.41;5029535;28;20042;-74
2021/12/01 07:38:59;;;;;;;18.48;2.40;;;;;;;7.89;92.24;99136.06;5011947;28;20121;-74
2021/12/01 07:41:25;;;;;;;14.73;3.40;;;;;;;7.76;92.63;99132.09;5028331;28;20068;-73
2021/12/01 07:43:51;;;;;;;18.55;3.05;;;;;;;7.64;93.31;99129.91;5012042;28;20037;-73
2021/12/01 07:46:16;;;;;;;25.52;2.70;;;;;;;7.55;93.17;99124.59;5030174;28;20080;-74
2021/12/01 07:48:42;;;;;;;19.77;3.35;;;;;;;7.53;92.77;99117.81;5031132;28;20433;-74
2021/12/01 07:51:08;;;;;;;19.00;2.67;;;;;;;7.47;93.44;99121.09;5030256;28;20045;-77
2021/12/01 07:53:36;;;;;;;20.00;2.45;;;;;;;7.54;89.94;99128.22;5029396;28;20095;-74
2021/12/01 07:56:03;;;;;;;9.98;1.98;;;;;;;7.64;89.04;99124.59;5029278;28;20053;-74
2021/12/01 07:58:29;;;;;;;17.10;2.50;;;;;;;7.66;88.57;99117.31;5028806;28;20048;-74
2021/12/01 08:00:54;;;;;;;14.13;1.90;;;;;;;7.73;87.35;99128.91;5029448;28;20088;-74
2021/12/01 08:03:20;;;;;;;11.95;2.10;;;;;;;7.77;86.88;99135.56;5028977;28;20041;-74
2021/12/01 08:05:45;;;;;;;16.20;2.17;;;;;;;7.81;87.11;99138.69;5029326;28;20095;-74
2021/12/01 08:08:11;;;;;;;12.60;2.42;;;;;;;7.79;88.90;99144.16;5028947;28;20446;-76
2021/12/01 08:10:37;;;;;;;14.02;2.17;;;;;;;7.59;89.69;99154.22;5011091;28;20037;-72
2021/12/01 08:13:04;;;;;;;9.55;1.75;;;;;;;7.36;90.55;99175.13;5029091;28;20031;-72
2021/12/01 08:15:29;;;;;;;11.18;2.00;;;;;;;7.21;91.89;99157.22;5028308;28;20064;-75
2021/12/01 08:17:54;;;;;;;17.50;1.90;;;;;;;7.15;92.09;99154.34;5028870;28;20095;-73
2021/12/01 08:20:21;;;;;;;17.95;2.00;;;;;;;7.12;93.53;99170.53;5028248;28;20045;-72
2021/12/01 08:22:46;;;;;;;17.00;2.13;;;;;;;7.11;93.97;99159.16;5029202;28;20049;-71
2021/12/01 08:25:13;;;;;;;12.82;2.10;;;;;;;7.15;93.32;99164.94;5028532;28;20025;-77
2021/12/01 08:27:39;;;;;;;8.20;1.42;;;;;;;7.16;94.02;99161.31;5011368;28;20042;-73
2021/12/01 08:30:06;;;;;;;13.23;1.77;;;;;;;7.12;94.21;99160.81;5028348;28;20084;-73
2021/12/01 08:32:31;;;;;;;11.18;2.30;;;;;;;7.09;94.97;99150.56;5028347;28;20033;-72
2021/12/01 08:34:57;;;;;;;12.45;1.92;;;;;;;7.07;94.74;99161.25;5028734;28;20034;-74
2021/12/01 08:37:22;;;;;;;10.02;1.67;;;;;;;7.09;93.80;99142.63;5031140;28;20398;-73
2021/12/01 08:39:49;;;;;;;11.63;1.83;;;;;;;7.12;94.10;99150.22;5014696;28;20066;-73
2021/12/01 08:42:19;;;;;;;21.42;2.95;;;;;;;7.21;92.79;99159.84;5032062;28;20140;-76
2021/12/01 08:44:45;;;;;;;9.38;1.77;;;;;;;7.13;93.38;99180.16;5032325;28;20118;-73
2021/12/01 08:47:16;;;;;;;13.50;2.47;;;;;;;6.94;95.38;99184.69;5014596;28;20551;-74
2021/12/01 08:49:42;;;;;;;5.78;1.00;;;;;;;6.83;95.55;99177.81;5014980;28;20025;-72
2021/12/01 08:52:08;;;;;;;15.68;2.05;;;;;;;6.80;96.47;99198.47;5014700;28;20111;-72
2021/12/01 08:54:34;;;;;;;25.98;2.40;;;;;;;6.81;97.16;99184.28;5031107;28;20056;-73
2021/12/01 08:57:00;;;;;;;17.45;2.30;;;;;;;6.85;96.21;99190.88;5032504;28;20052;-71
2021/12/01 08:59:26;;;;;;;12.23;1.77;;;;;;;6.87;96.58;99186.28;5032102;28;20446;-72
2021/12/01 09:01:51;;;;;;;10.40;2.00;;;;;;;6.95;94.92;99199.53;5032082;28;20113;-74
2021/12/01 09:04:19;;;;;;;12.90;2.30;;;;;;;7.06;94.84;99206.38;5031982;28;20163;-76
2021/12/01 09:06:45;;;;;;;14.20;1.90;;;;;;;7.15;95.02;99199.31;5031599;28;20034;-74
2021/12/01 09:09:17;;;;;;;10.68;1.70;;;;;;;7.18;94.63;99223.66;5031756;28;20039;-73
2021/12/01 09:11:43;;;;;;;9.90;1.48;;;;;;;7.00;95.11;99209.66;5031700;28;20493;-73
2021/12/01 09:14:09;;;;;;;8.48;1.40;;;;;;;6.77;97.19;99217.28;5031941;28;20099;-74
2021/12/01 09:16:34;;;;;;;11.57;1.77;;;;;;;6.58;98.36;99229.66;5030812;28;20041;-73
2021/12/01 09:19:00;;;;;;;8.18;1.80;;;;;;;6.41;98.79;99222.59;5031893;28;20029;-71
2021/12/01 09:21:26;;;;;;;14.45;1.73;;;;;;;6.36;98.58;99220.41;5031304;28;20053;-72
2021/12/01 09:23:51;;;;;;;11.27;2.22;;;;;;;6.38;98.31;99226.38;5032019;28;20076;-72
2021/12/01 09:26:17;;;;;;;16.90;2.33;;;;;;;6.46;97.73;99233.53;5031698;28;20037;-73
2021/12/01 09:28:42;;;;;;;14.68;2.05;;;;;;;6.52;97.26;99232.94;5030544;28;20036;-71
2021/12/01 09:31:08;;;;;;;15.18;2.17;;;;;;;6.58;97.79;99229.66;5013935;28;20421;-71
2021/12/01 09:33:33;;;;;;;10.85;2.08;;;;;;;6.68;95.46;99226.94;5030979;28;20044;-74
2021/12/01 09:35:59;;;;;;;14.50;2.25;;;;;;;6.74;95.44;99222.88;5031467;28;20052;-73
2021/12/01 09:38:26;;;;;;;12.85;1.80;;;;;;;6.73;95.23;99232.59;5030605;28;20041;-73
2021/12/01 09:40:53;;;;;;;13.27;2.78;;;;;;;6.73;93.57;99252.91;5030813;28;20450;-73
2021/12/01 09:43:24;;;;;;;12.52;1.92;;;;;;;6.66;93.84;99242.97;5013660;28;20145;-73
2021/12/01 09:45:50;;;;;;;15.35;1.83;;;;;;;6.62;94.25;99246.06;5031589;28;20029;-72
2021/12/01 09:48:16;;;;;;;11.60;2.15;;;;;;;6.51;95.55;99244.50;5030763;28;20044;-71
2021/12/01 09:50:42;;;;;;;12.90;2.47;;;;;;;6.45;95.93;99248.56;5012812;28;20106;-77
2021/12/01 09:53:07;;;;;;;14.23;2.22;;;;;;;6.44;96.97;99251.38;5030756;28;20045;-75
2021/12/01 09:55:33;;;;;;;15.45;2.67;;;;;;;6.40;97.98;99256.09;5030705;28;20540;-71
2021/12/01 09:58:11;;;;;;;15.55;1.80;;;;;;;6.38;98.65;99255.44;5031090;28;20091;-71
2021/12/01 10:00:40;;;;;;;13.50;2.17;;;;;;;6.38;98.62;99255.44;5030370;28;20030;-73
2021/12/01 10:03:06;;;;;;;15.73;2.33;;;;;;;6.41;98.09;99249.84;5030853;28;20564;-74
2021/12/01 10:08:37;;;;;;;13.68;1.80;;;;;;;6.59;96.55;99246.38;5030562;28;20041;-73
2021/12/01 10:11:15;;;;;;;11.73;1.88;;;;;;;6.65;95.74;99243.94;5031116;28;20037;-75
2021/12/01 10:13:44;;;;;;;14.25;2.42;;;;;;;6.74;93.89;99244.03;5014112;28;20030;-75
2021/12/01 10:16:12;;;;;;;14.00;3.22;;;;;;;6.78;93.57;99240.91;5030508;28;20025;-73
2021/12/01 10:18:43;;;;;;;18.83;2.50;;;;;;;6.89;92.02;99253.03;5029848;28;20160;-72
2021/12/01 10:21:16;;;;;;;13.60;2.00;;;;;;;6.99;91.15;99247.69;5030412;28;20572;-71
2021/12/01 10:23:45;;;;;;;16.83;2.33;;;;;;;7.04;91.51;99237.44;5029708;28;20042;-77
2021/12/01 10:26:14;;;;;;;9.05;1.73;;;;;;;7.11;90.78;99241.13;5030601;28;20025;-76
2021/12/01 10:28:43;;;;;;;20.05;3.38;;;;;;;7.16;89.92;99253.91;5029593;28;20033;-72
2021/12/01 10:31:10;;;;;;;19.23;3.95;;;;;;;7.15;88.96;99226.63;5030493;28;20496;-72
2021/12/01 10:33:35;;;;;;;9.77;2.20;;;;;;;7.14;89.98;99232.88;5029745;28;20396;-75
2021/12/01 10:36:04;;;;;;;18.95;2.30;;;;;;;7.12;89.47;99236.66;5030459;28;20048;-72
2021/12/01 10:38:35;;;;;;;18.25;2.63;;;;;;;7.09;90.03;99224.59;5012168;28;20504;-72
2021/12/01 10:41:04;;;;;;;11.43;2.10;;;;;;;7.10;89.24;99223.59;5040719;28;20473;-70
2021/12/01 10:43:46;;;;;;;13.68;2.40;;;;;;;7.13;88.81;99233.03;5046357;28;20150;-75
2021/12/01 10:46:17;;;;;;;15.52;2.00;;;;;;;7.12;89.14;99241.97;5050762;28;20025;-73
2021/12/01 10:48:45;;;;;;;13.52;1.98;;;;;;;7.12;87.00;99232.22;5017160;28;20530;-73
2021/12/01 10:51:30;;;;;;;12.23;1.83;;;;;;;7.18;85.75;99239.53;5051363;28;20033;-73
2021/12/01 10:53:56;;;;;;;15.38;2.08;;;;;;;7.20;85.40;99229.63;5051089;28;20033;-71
2021/12/01 10:56:21;;;;;;;18.17;2.15;;;;;;;7.18;85.79;99220.16;5051457;28;20473;-73
2021/12/01 10:58:47;;;;;;;15.32;2.03;;;;;;;7.25;85.83;99247.66;5050238;28;20029;-72
2021/12/01 11:01:24;;;;;;;16.48;2.00;;;;;;;7.28;85.13;99242.06;5034632;28;20029;-73
2021/12/01 11:03:51;;;;;;;9.70;1.92;;;;;;;7.32;84.55;99246.06;5051818;28;20104;-71
2021/12/01 11:06:23;;;;;;;16.52;1.95;;;;;;;7.34;84.99;99237.97;5034494;28;20029;-73
2021/12/01 11:08:58;;;;;;;11.23;1.95;;;;;;;7.37;84.60;99229.69;5051996;28;20033;-73
2021/12/01 11:11:35;;;;;;;14.45;2.40;;;;;;;7.41;84.54;99239.00;5052533;28;20040;-72
2021/12/01 11:14:09;;;;;;;8.90;1.55;;;;;;;7.42;84.63;99240.66;5052394;28;20036;-72
2021/12/01 11:16:40;;;;;;;8.15;1.70;;;;;;;7.43;84.51;99231.72;5051625;28;20077;-76
2021/12/01 11:19:06;;;;;;;13.98;2.22;;;;;;;7.44;83.82;99245.78;5051912;28;20093;-73
2021/12/01 11:21:31;;;;;;;11.40;2.22;;;;;;;7.47;81.85;99235.72;5051656;28;20061;-72
2021/12/01 11:24:05;;;;;;;9.95;1.52;;;;;;;7.51;82.47;99230.91;5033532;28;20045;-75
2021/12/01 11:26:32;;;;;;;7.50;1.83;;;;;;;7.52;83.13;99244.00;5036335;28;20033;-73
2021/12/01 11:28:59;;;;;;;12.60;2.38;;;;;;;7.58;83.44;99238.09;5028895;28;20025;-74
2021/12/01 11:31:29;;;;;;;12.82;2.10;;;;;;;7.59;83.90;99234.44;5029186;28;20397;-73
2021/12/01 11:33:59;;;;;;;12.13;1.90;;;;;;;7.62;82.85;99240.41;5028810;28;20365;-73
2021/12/01 11:37:02;;;;;;;9.90;1.83;;;;;;;7.65;81.53;99242.75;5029697;28;20060;-72
2021/12/01 11:39:30;;;;;;;12.13;2.00;;;;;;;7.63;82.28;99234.13;5016937;28;20041;-73
2021/12/01 11:41:55;;;;;;;13.77;2.75;;;;;;;7.61;82.55;99247.50;5028845;28;20111;-71
2021/12/01 11:44:21;;;;;;;14.63;2.05;;;;;;;7.64;82.19;99227.84;5029375;28;20402;-74